createdAt,value
2022-10-07T00:03:44.002Z,5.43
2022-10-07T00:07:46.640Z,5.42
2022-10-07T00:11:48.541Z,5.34
2022-10-07T00:15:50.608Z,5.30
2022-10-07T00:19:52.198Z,5.28
2022-10-07T00:23:54.099Z,5.41
2022-10-07T00:27:55.905Z,5.29
2022-10-07T00:31:57.828Z,5.20
2022-10-07T00:35:59.604Z,5.04
2022-10-07T00:40:01.645Z,5.16
2022-10-07T00:44:31.282Z,5.20
2022-10-07T00:48:36.113Z,5.21
2022-10-07T00:52:42.433Z,5.13
2022-10-07T00:56:47.063Z,5.01
2022-10-07T01:00:48.734Z,5.07
2022-10-07T01:04:52.795Z,4.98
2022-10-07T01:08:54.762Z,5.00
2022-10-07T01:13:18.740Z,5.06
2022-10-07T01:17:35.897Z,5.01
2022-10-07T01:21:52.683Z,5.08
2022-10-07T01:26:04.270Z,5.08
2022-10-07T01:30:08.159Z,4.91
2022-10-07T01:34:11.739Z,4.83
2022-10-07T01:38:17.878Z,4.89
2022-10-07T01:42:21.171Z,4.76
2022-10-07T01:46:26.781Z,4.80
2022-10-07T01:50:33.332Z,4.77
2022-10-07T01:55:09.190Z,4.77
2022-10-07T01:59:31.066Z,4.70
2022-10-07T02:03:54.692Z,4.77
2022-10-07T02:08:30.181Z,4.72
2022-10-07T02:12:40.190Z,4.72
2022-10-07T02:16:47.837Z,4.72
2022-10-07T02:20:52.547Z,4.68
2022-10-07T02:24:59.154Z,4.70
2022-10-07T02:29:06.819Z,4.67
2022-10-07T02:33:10.376Z,4.61
2022-10-07T02:37:19.725Z,4.72
2022-10-07T02:41:33.736Z,4.56
2022-10-07T02:46:06.043Z,4.57
2022-10-07T02:50:12.838Z,4.54
2022-10-07T02:54:24.286Z,4.49
2022-10-07T02:58:26.577Z,4.43
2022-10-07T03:02:50.217Z,4.30
2022-10-07T03:06:52.346Z,4.42
2022-10-07T03:10:54.273Z,4.28
2022-10-07T03:14:56.322Z,4.30
2022-10-07T03:19:01.472Z,4.27
2022-10-07T03:23:11.660Z,4.29
2022-10-07T03:27:13.989Z,4.24
2022-10-07T03:31:16.443Z,4.30
2022-10-07T03:35:22.663Z,4.28
2022-10-07T03:39:24.590Z,4.43
2022-10-07T03:43:28.896Z,4.59
2022-10-07T03:47:30.799Z,4.61
2022-10-07T03:51:33.081Z,4.70
2022-10-07T03:55:36.818Z,4.75
2022-10-07T03:59:39.348Z,4.77
2022-10-07T04:03:41.378Z,4.78
2022-10-07T04:07:48.185Z,4.76
2022-10-07T04:11:51.249Z,4.81
2022-10-07T04:15:54.701Z,4.80
2022-10-07T04:19:58.018Z,4.83
2022-10-07T04:24:00.563Z,4.87
2022-10-07T04:28:06.494Z,4.82
2022-10-07T04:32:09.807Z,4.76
2022-10-07T04:36:12.862Z,4.75
2022-10-07T04:40:31.094Z,4.64
2022-10-07T04:44:33.353Z,4.70
2022-10-07T04:48:44.088Z,4.62
2022-10-07T04:52:46.483Z,4.60
2022-10-07T04:56:49.975Z,4.57
2022-10-07T05:00:55.889Z,4.56
2022-10-07T05:04:59.890Z,4.62
2022-10-07T05:09:02.004Z,4.68
2022-10-07T05:13:12.395Z,4.64
2022-10-07T05:17:15.299Z,4.76
2022-10-07T05:21:17.401Z,4.91
2022-10-07T05:25:21.522Z,4.95
2022-10-07T05:29:24.209Z,5.00
2022-10-07T05:33:29.349Z,5.08
2022-10-07T05:37:32.405Z,5.09
2022-10-07T05:41:38.446Z,5.24
2022-10-07T05:45:47.637Z,5.38
2022-10-07T05:49:49.355Z,5.46
2022-10-07T05:53:56.047Z,5.51
2022-10-07T05:58:00.688Z,5.60
2022-10-07T06:02:02.774Z,5.78
2022-10-07T06:06:05.197Z,5.86
2022-10-07T06:10:26.333Z,5.94
2022-10-07T06:14:28.443Z,6.14
2022-10-07T06:18:30.615Z,6.32
2022-10-07T06:22:34.046Z,6.29
2022-10-07T06:26:36.036Z,6.48
2022-10-07T06:30:38.324Z,6.69
2022-10-07T06:34:40.280Z,6.91
2022-10-07T06:38:46.834Z,7.01
2022-10-07T06:42:49.393Z,7.09
2022-10-07T06:47:14.655Z,7.33
2022-10-07T06:51:20.501Z,7.60
2022-10-07T06:55:24.222Z,7.83
2022-10-07T06:59:26.341Z,8.06
2022-10-07T07:03:35.315Z,8.31
2022-10-07T07:07:38.240Z,8.52
2022-10-07T07:11:43.363Z,8.68
2022-10-07T07:15:58.979Z,8.93
2022-10-07T07:20:03.882Z,9.16
2022-10-07T07:24:07.738Z,9.24
2022-10-07T07:28:09.968Z,9.52
2022-10-07T07:32:37.244Z,9.85
2022-10-07T07:36:44.767Z,10.13
2022-10-07T07:40:47.276Z,10.27
2022-10-07T07:44:50.056Z,10.47
2022-10-07T07:48:54.836Z,10.69
2022-10-07T07:52:57.732Z,10.96
2022-10-07T07:57:00.337Z,11.22
2022-10-07T08:01:09.176Z,11.42
2022-10-07T08:05:11.098Z,11.60
2022-10-07T08:09:13.139Z,11.72
2022-10-07T08:13:18.332Z,12.10
2022-10-07T08:17:20.318Z,12.35
2022-10-07T08:21:25.121Z,12.68
2022-10-07T08:25:30.559Z,12.83
2022-10-07T08:29:35.412Z,12.99
2022-10-07T08:33:39.715Z,13.34
2022-10-07T08:37:41.512Z,13.43
2022-10-07T08:42:01.589Z,13.68
2022-10-07T08:46:04.851Z,13.84
2022-10-07T08:50:19.681Z,14.03
2022-10-07T08:54:27.589Z,14.18
2022-10-07T08:58:43.392Z,14.34
2022-10-07T09:03:09.868Z,14.44
2022-10-07T09:07:16.107Z,14.68
2022-10-07T09:11:25.948Z,14.68
2022-10-07T09:15:40.087Z,14.72
2022-10-07T09:19:48.768Z,15.04
2022-10-07T09:23:54.685Z,15.25
2022-10-07T09:27:57.145Z,15.44
2022-10-07T09:31:59.397Z,15.65
2022-10-07T09:36:10.207Z,15.89
2022-10-07T09:40:36.825Z,16.08
2022-10-07T09:44:40.165Z,16.39
2022-10-07T09:48:52.746Z,16.42
2022-10-07T09:52:57.589Z,16.57
2022-10-07T09:57:01.917Z,16.64
2022-10-07T10:01:28.526Z,16.91
2022-10-07T10:05:32.906Z,17.11
2022-10-07T10:09:35.184Z,16.97
2022-10-07T10:13:40.902Z,17.21
2022-10-07T10:17:42.702Z,17.10
2022-10-07T10:21:51.503Z,17.12
2022-10-07T10:26:33.631Z,17.17
2022-10-07T10:30:47.328Z,17.43
2022-10-07T10:35:14.957Z,17.68
2022-10-07T10:39:44.912Z,17.64
2022-10-07T10:44:03.925Z,17.70
2022-10-07T10:48:09.731Z,17.80
2022-10-07T10:52:29.620Z,17.77
2022-10-07T10:56:43.890Z,17.87
2022-10-07T11:00:48.678Z,17.86
2022-10-07T11:05:14.963Z,18.05
2022-10-07T11:09:30.828Z,17.93
2022-10-07T11:13:55.893Z,18.17
2022-10-07T11:18:02.178Z,18.10
2022-10-07T11:22:10.816Z,18.30
2022-10-07T11:26:23.008Z,18.41
2022-10-07T11:30:31.858Z,18.34
2022-10-07T11:34:54.715Z,18.60
2022-10-07T11:38:56.716Z,18.40
2022-10-07T11:43:07.596Z,18.51
2022-10-07T11:47:16.794Z,18.53
2022-10-07T11:51:27.406Z,18.61
2022-10-07T11:55:35.577Z,18.65
2022-10-07T11:59:43.377Z,18.57
2022-10-07T12:03:47.224Z,18.80
2022-10-07T12:08:22.135Z,18.89
2022-10-07T12:12:25.016Z,18.99
2022-10-07T12:16:32.398Z,19.07
2022-10-07T12:20:46.243Z,19.02
2022-10-07T12:25:29.277Z,18.88
2022-10-07T12:29:35.365Z,18.97
2022-10-07T12:33:46.280Z,18.88
2022-10-07T12:37:50.353Z,19.05
2022-10-07T12:41:52.288Z,19.08
2022-10-07T12:45:58.185Z,19.07
2022-10-07T12:50:11.302Z,18.99
2022-10-07T12:54:20.243Z,18.93
2022-10-07T12:58:56.989Z,19.10
2022-10-07T13:03:25.105Z,19.16
2022-10-07T13:07:39.048Z,19.12
2022-10-07T13:12:06.759Z,19.15
2022-10-07T13:16:15.635Z,18.99
2022-10-07T13:20:54.045Z,19.04
2022-10-07T13:24:58.047Z,19.17
2022-10-07T13:29:01.205Z,19.26
2022-10-07T13:33:23.877Z,19.18
2022-10-07T13:37:37.105Z,19.37
2022-10-07T13:41:44.146Z,19.31
2022-10-07T13:45:47.054Z,19.24
2022-10-07T13:49:53.285Z,19.14
2022-10-07T13:54:00.396Z,19.18
2022-10-07T13:58:04.932Z,18.95
2022-10-07T14:02:10.277Z,18.97
2022-10-07T14:06:41.719Z,19.06
2022-10-07T14:11:07.877Z,19.10
2022-10-07T14:15:15.535Z,19.04
2022-10-07T14:19:21.036Z,18.93
2022-10-07T14:23:32.812Z,18.78
2022-10-07T14:27:52.734Z,18.68
2022-10-07T14:32:28.143Z,18.59
2022-10-07T14:36:29.952Z,18.41
2022-10-07T14:40:31.567Z,18.18
2022-10-07T14:44:33.713Z,18.10
2022-10-07T14:48:35.989Z,17.99
2022-10-07T14:52:44.609Z,17.68
2022-10-07T14:56:46.658Z,17.66
2022-10-07T15:00:48.417Z,17.43
2022-10-07T15:04:50.320Z,17.42
2022-10-07T15:08:52.397Z,17.19
2022-10-07T15:12:56.020Z,16.89
2022-10-07T15:16:58.072Z,16.69
2022-10-07T15:20:59.956Z,16.54
2022-10-07T15:25:05.500Z,16.39
2022-10-07T15:29:08.451Z,16.17
2022-10-07T15:33:12.448Z,16.07
2022-10-07T15:37:14.514Z,15.78
2022-10-07T15:41:32.881Z,15.54
2022-10-07T15:45:34.893Z,15.23
2022-10-07T15:49:36.694Z,15.01
2022-10-07T15:53:38.397Z,14.89
2022-10-07T15:57:40.342Z,14.67
2022-10-07T16:01:42.056Z,14.48
2022-10-07T16:05:44.801Z,14.19
2022-10-07T16:09:46.753Z,14.04
2022-10-07T16:13:48.977Z,13.85
2022-10-07T16:17:50.703Z,13.64
2022-10-07T16:21:52.711Z,13.49
2022-10-07T16:25:54.441Z,13.29
2022-10-07T16:30:19.511Z,13.18
2022-10-07T16:34:21.337Z,13.06
2022-10-07T16:38:23.203Z,12.88
2022-10-07T16:42:24.877Z,12.82
2022-10-07T16:46:27.458Z,12.80
2022-10-07T16:50:30.001Z,12.79
2022-10-07T16:54:35.263Z,12.74
2022-10-07T16:58:38.782Z,12.62
2022-10-07T17:02:40.628Z,12.49
2022-10-07T17:06:43.837Z,12.50
2022-10-07T17:10:45.743Z,12.40
2022-10-07T17:14:47.537Z,12.39
2022-10-07T17:18:49.309Z,12.37
2022-10-07T17:22:51.190Z,12.38
2022-10-07T17:26:53.519Z,12.40
2022-10-07T17:30:55.302Z,12.39
2022-10-07T17:34:57.163Z,12.34
2022-10-07T17:38:59.352Z,12.33
2022-10-07T17:43:04.397Z,12.28
2022-10-07T17:47:32.713Z,12.19
2022-10-07T17:51:35.183Z,12.18
2022-10-07T17:55:37.652Z,12.07
2022-10-07T17:59:39.811Z,11.94
2022-10-07T18:03:43.485Z,11.84
2022-10-07T18:07:45.924Z,11.76
2022-10-07T18:12:06.632Z,11.63
2022-10-07T18:16:08.506Z,11.54
2022-10-07T18:20:14.825Z,11.52
2022-10-07T18:24:17.297Z,11.41
2022-10-07T18:28:19.116Z,11.34
2022-10-07T18:32:21.333Z,11.31
2022-10-07T18:36:23.271Z,11.25
2022-10-07T18:40:25.121Z,11.24
2022-10-07T18:44:27.230Z,11.22
2022-10-07T18:48:54.183Z,11.28
2022-10-07T18:52:56.108Z,11.31
2022-10-07T18:56:57.767Z,11.32
2022-10-07T19:00:59.941Z,11.26
2022-10-07T19:05:01.599Z,11.30
2022-10-07T19:09:07.018Z,11.30
2022-10-07T19:13:32.783Z,11.42
2022-10-07T19:17:34.725Z,11.44
2022-10-07T19:21:36.416Z,11.50
2022-10-07T19:25:48.015Z,11.57
2022-10-07T19:29:50.632Z,11.56
2022-10-07T19:33:57.663Z,11.61
2022-10-07T19:38:00.081Z,11.56
2022-10-07T19:42:01.971Z,11.51
2022-10-07T19:46:04.497Z,11.48
2022-10-07T19:50:07.151Z,11.44
2022-10-07T19:54:10.623Z,11.47
2022-10-07T19:58:12.784Z,11.46
2022-10-07T20:02:14.497Z,11.43
2022-10-07T20:06:16.462Z,11.40
2022-10-07T20:10:18.910Z,11.37
2022-10-07T20:14:21.044Z,11.30
2022-10-07T20:18:22.760Z,11.25
2022-10-07T20:22:24.669Z,11.25
2022-10-07T20:26:31.487Z,11.34
2022-10-07T20:30:34.848Z,11.24
2022-10-07T20:34:38.257Z,11.20
2022-10-07T20:38:58.663Z,11.13
2022-10-07T20:43:00.927Z,11.06
2022-10-07T20:47:06.334Z,11.11
2022-10-07T20:51:08.391Z,11.16
2022-10-07T20:55:14.068Z,11.13
2022-10-07T20:59:15.711Z,11.08
2022-10-07T21:03:18.297Z,11.05
2022-10-07T21:07:20.632Z,11.06
2022-10-07T21:11:22.502Z,11.01
2022-10-07T21:15:25.263Z,11.07
2022-10-07T21:19:27.174Z,11.01
2022-10-07T21:23:29.357Z,11.07
2022-10-07T21:27:31.343Z,10.99
2022-10-07T21:31:33.105Z,10.94
2022-10-07T21:35:35.069Z,10.99
2022-10-07T21:39:38.237Z,10.96
2022-10-07T21:43:41.957Z,11.00
2022-10-07T21:47:43.645Z,10.90
2022-10-07T21:51:45.631Z,10.90
2022-10-07T21:55:47.231Z,10.94
2022-10-07T21:59:49.210Z,10.85
2022-10-07T22:03:55.790Z,10.81
2022-10-07T22:08:37.872Z,10.76
2022-10-07T22:12:40.992Z,10.75
2022-10-07T22:16:42.797Z,10.72
2022-10-07T22:20:45.268Z,10.73
2022-10-07T22:24:47.022Z,10.68
2022-10-07T22:28:49.749Z,10.69
2022-10-07T22:32:51.467Z,10.69
2022-10-07T22:36:54.229Z,10.62
2022-10-07T22:40:56.227Z,10.64
2022-10-07T22:44:57.986Z,10.63
2022-10-07T22:48:59.701Z,10.58
2022-10-07T22:53:02.055Z,10.59
2022-10-07T22:57:06.997Z,10.58
2022-10-07T23:01:14.625Z,10.58
2022-10-07T23:05:17.185Z,10.57
2022-10-07T23:09:43.498Z,10.58
2022-10-07T23:13:46.027Z,10.54
2022-10-07T23:17:48.101Z,10.59
2022-10-07T23:21:49.973Z,10.52
2022-10-07T23:25:52.112Z,10.49
2022-10-07T23:29:54.032Z,10.57
2022-10-07T23:33:57.079Z,10.51
2022-10-07T23:38:00.424Z,10.50
2022-10-07T23:42:02.990Z,10.43
2022-10-07T23:46:06.581Z,10.43
2022-10-07T23:50:09.480Z,10.35
2022-10-07T23:54:11.430Z,10.31
2022-10-07T23:58:17.577Z,10.30
